Disclaimer

Please do not use the information listed here in-flight or in-navigation, as they are not provided to us by the airports but are provided by volunteers, so they might be outdated.

Search


Regions


Airport information page

Radio informations:
SAINT NAZAIRE TW - 118.95 MHz

Airport informations:
Latitude: 47° 18' 43.88" N
Longitude: 002° 08' 57.05" W
Elevation: 13 feet - 4 meters
Operating hours: Remarks
Operating agency: Civil government, landing fees and diplomatic clearance may be required
Timezone: UTC+1(+2DT) - Last Sunday in March to last Sunday in October
Fuel: Jet A1, without icing nhibitor.

100/130 MIL Spec, low lead, aviation gasoline (BLUE)

Runway information:
08/26 - 7874 x 148 feet< - >2400 x 45 meters

Recent METARs:
LFRZ 151830Z AUTO 26015KT 9999 OVC009 13/12 Q1009 BECMG BKN025
LFRZ 151900Z AUTO 28012KT 9999 BKN014 OVC036 12/11 Q1009 BECMG BKN025
LFRZ 151930Z AUTO 28012KT 9999 FEW017 BKN028 OVC035 12/10 Q1010 NOSIG

Airport on the map: